NOO6332 RJFU-RJOM
Flight info
| Callsign | NOO6332 |
|---|---|
| Flight time | 0h 41m |
| Altitude | 19000 |
| Route | AKNAG ACTIE HIZET CLIPA MARCO |
| Aircraft | DH8D/M-SDE2E3FY/H |
Departure
| Time | 2026-04-29 23:18 |
|---|---|
| Airport | Nagasaki Airport (RJFU) |
Arrival
| Time | 2026-04-29 23:59 |
|---|---|
| Airport | Matsuyama Airport (RJOM) |
| Time | Latitude | Longitude | Altitude | Speed | Heading |
|---|---|---|---|---|---|
| 2026-04-29 23:15 | 32.92751 | 129.90355 | 7 ft | 0 kts | 229° |
| 2026-04-29 23:16 | 32.92725 | 129.90318 | 7 ft | 11 kts | 229° |
| 2026-04-29 23:16 | 32.92681 | 129.90292 | 7 ft | 5 kts | 137° |
| 2026-04-29 23:16 | 32.92675 | 129.90299 | 7 ft | 0 kts | 136° |
| 2026-04-29 23:17 | 32.92489 | 129.90497 | 8 ft | 83 kts | 137° |
| 2026-04-29 23:17 | 32.91866 | 129.91164 | 10 ft | 149 kts | 138° |
| 2026-04-29 23:17 | 32.91047 | 129.92026 | 354 ft | 165 kts | 138° |
| 2026-04-29 23:18 | 32.90137 | 129.92909 | 947 ft | 175 kts | 141° |
| 2026-04-29 23:18 | 32.89153 | 129.93788 | 1595 ft | 182 kts | 140° |
| 2026-04-29 23:18 | 32.88189 | 129.94756 | 2268 ft | 186 kts | 134° |
| 2026-04-29 23:18 | 32.87243 | 129.95821 | 3021 ft | 187 kts | 135° |
| 2026-04-29 23:19 | 32.86311 | 129.96864 | 3767 ft | 186 kts | 136° |
| 2026-04-29 23:19 | 32.85364 | 129.97917 | 4311 ft | 191 kts | 137° |
| 2026-04-29 23:19 | 32.84354 | 129.98970 | 4888 ft | 195 kts | 147° |
| 2026-04-29 23:19 | 32.83056 | 129.99266 | 5353 ft | 197 kts | 196° |
| 2026-04-29 23:20 | 32.82032 | 129.98235 | 5843 ft | 203 kts | 243° |
| 2026-04-29 23:20 | 32.82012 | 129.96584 | 6336 ft | 212 kts | 290° |
| 2026-04-29 23:20 | 32.82840 | 129.95103 | 6865 ft | 217 kts | 304° |
| 2026-04-29 23:20 | 32.83762 | 129.93713 | 7471 ft | 215 kts | 304° |
| 2026-04-29 23:21 | 32.84686 | 129.92311 | 7995 ft | 219 kts | 303° |
| 2026-04-29 23:21 | 32.85622 | 129.90868 | 8497 ft | 221 kts | 304° |
| 2026-04-29 23:21 | 32.86550 | 129.89436 | 9107 ft | 218 kts | 303° |
| 2026-04-29 23:21 | 32.87462 | 129.88011 | 9644 ft | 220 kts | 302° |
| 2026-04-29 23:22 | 32.88393 | 129.86545 | 10101 ft | 222 kts | 301° |
| 2026-04-29 23:22 | 32.89336 | 129.85133 | 10749 ft | 219 kts | 309° |
| 2026-04-29 23:22 | 32.90716 | 129.84340 | 11225 ft | 235 kts | 346° |
| 2026-04-29 23:22 | 32.92394 | 129.84285 | 11668 ft | 243 kts | 354° |
| 2026-04-29 23:23 | 32.94080 | 129.84309 | 12163 ft | 244 kts | 353° |
| 2026-04-29 23:23 | 32.95785 | 129.84334 | 12670 ft | 244 kts | 353° |
| 2026-04-29 23:23 | 32.97457 | 129.84355 | 13179 ft | 243 kts | 352° |
| 2026-04-29 23:23 | 32.99152 | 129.84374 | 13625 ft | 243 kts | 351° |
| 2026-04-29 23:24 | 33.00866 | 129.84387 | 13980 ft | 248 kts | 351° |
| 2026-04-29 23:24 | 33.02567 | 129.84402 | 14454 ft | 247 kts | 351° |
| 2026-04-29 23:24 | 33.04322 | 129.84413 | 14748 ft | 254 kts | 351° |
| 2026-04-29 23:24 | 33.06091 | 129.84427 | 15168 ft | 254 kts | 351° |
| 2026-04-29 23:25 | 33.07862 | 129.84439 | 15517 ft | 257 kts | 350° |
| 2026-04-29 23:25 | 33.09653 | 129.84451 | 15850 ft | 260 kts | 351° |
| 2026-04-29 23:25 | 33.11478 | 129.84465 | 16217 ft | 261 kts | 351° |
| 2026-04-29 23:25 | 33.13305 | 129.84477 | 16526 ft | 265 kts | 351° |
| 2026-04-29 23:26 | 33.15163 | 129.84489 | 16844 ft | 266 kts | 351° |
| 2026-04-29 23:26 | 33.17010 | 129.84502 | 17134 ft | 269 kts | 351° |
| 2026-04-29 23:26 | 33.18899 | 129.84515 | 17480 ft | 269 kts | 350° |
| 2026-04-29 23:26 | 33.20776 | 129.84526 | 17715 ft | 274 kts | 351° |
| 2026-04-29 23:27 | 33.22683 | 129.84541 | 18104 ft | 271 kts | 350° |
| 2026-04-29 23:27 | 33.24593 | 129.84552 | 18300 ft | 277 kts | 351° |
| 2026-04-29 23:27 | 33.26518 | 129.84566 | 18630 ft | 276 kts | 350° |
| 2026-04-29 23:27 | 33.28453 | 129.84578 | 18859 ft | 280 kts | 350° |
| 2026-04-29 23:28 | 33.30455 | 129.84586 | 18948 ft | 291 kts | 350° |
| 2026-04-29 23:28 | 33.32502 | 129.84700 | 18979 ft | 311 kts | 2° |
| 2026-04-29 23:28 | 33.34542 | 129.85838 | 19010 ft | 337 kts | 36° |
| 2026-04-29 23:28 | 33.36061 | 129.88023 | 19033 ft | 350 kts | 55° |
| 2026-04-29 23:29 | 33.37412 | 129.90527 | 19027 ft | 362 kts | 56° |
| 2026-04-29 23:29 | 33.38784 | 129.93065 | 19016 ft | 372 kts | 56° |
| 2026-04-29 23:29 | 33.40226 | 129.95700 | 19015 ft | 379 kts | 55° |
| 2026-04-29 23:29 | 33.41671 | 129.98320 | 19013 ft | 381 kts | 56° |
| 2026-04-29 23:30 | 33.43141 | 130.00966 | 19014 ft | 384 kts | 55° |
| 2026-04-29 23:30 | 33.44640 | 130.03653 | 19015 ft | 385 kts | 55° |
| 2026-04-29 23:30 | 33.46118 | 130.06294 | 19021 ft | 387 kts | 55° |
| 2026-04-29 23:30 | 33.47613 | 130.08963 | 19015 ft | 388 kts | 54° |
| 2026-04-29 23:31 | 33.49123 | 130.11652 | 19014 ft | 389 kts | 54° |
| 2026-04-29 23:31 | 33.50641 | 130.14355 | 19020 ft | 390 kts | 55° |
| 2026-04-29 23:31 | 33.52157 | 130.17055 | 19023 ft | 391 kts | 55° |
| 2026-04-29 23:31 | 33.53680 | 130.19766 | 19022 ft | 392 kts | 54° |
| 2026-04-29 23:32 | 33.55204 | 130.22479 | 19021 ft | 392 kts | 54° |
| 2026-04-29 23:32 | 33.56704 | 130.25150 | 19032 ft | 392 kts | 55° |
| 2026-04-29 23:32 | 33.58240 | 130.27885 | 19031 ft | 392 kts | 55° |
| 2026-04-29 23:32 | 33.59763 | 130.30600 | 19029 ft | 392 kts | 54° |
| 2026-04-29 23:33 | 33.61264 | 130.33281 | 19031 ft | 392 kts | 54° |
| 2026-04-29 23:33 | 33.62776 | 130.35979 | 19031 ft | 392 kts | 54° |
| 2026-04-29 23:33 | 33.64291 | 130.38687 | 19034 ft | 391 kts | 55° |
| 2026-04-29 23:33 | 33.65814 | 130.41408 | 19040 ft | 390 kts | 54° |
| 2026-04-29 23:34 | 33.67321 | 130.44102 | 19058 ft | 389 kts | 54° |
| 2026-04-29 23:34 | 33.68834 | 130.46809 | 19040 ft | 390 kts | 54° |
| 2026-04-29 23:34 | 33.70134 | 130.49652 | 19009 ft | 391 kts | 69° |
| 2026-04-29 23:34 | 33.70924 | 130.52782 | 19041 ft | 390 kts | 76° |
| 2026-04-29 23:35 | 33.71648 | 130.55896 | 19070 ft | 389 kts | 75° |
| 2026-04-29 23:35 | 33.72378 | 130.59024 | 19046 ft | 391 kts | 75° |
| 2026-04-29 23:35 | 33.73110 | 130.62175 | 19039 ft | 391 kts | 75° |
| 2026-04-29 23:35 | 33.73840 | 130.65302 | 19046 ft | 391 kts | 76° |
| 2026-04-29 23:36 | 33.74569 | 130.68433 | 19046 ft | 390 kts | 76° |
| 2026-04-29 23:36 | 33.75302 | 130.71576 | 19056 ft | 390 kts | 76° |
| 2026-04-29 23:36 | 33.76034 | 130.74712 | 19068 ft | 389 kts | 76° |
| 2026-04-29 23:36 | 33.76761 | 130.77817 | 19055 ft | 389 kts | 75° |
| 2026-04-29 23:37 | 33.77498 | 130.80969 | 19055 ft | 390 kts | 76° |
| 2026-04-29 23:37 | 33.78221 | 130.84065 | 19056 ft | 389 kts | 75° |
| 2026-04-29 23:37 | 33.78957 | 130.87231 | 19048 ft | 389 kts | 75° |
| 2026-04-29 23:37 | 33.79681 | 130.90358 | 19037 ft | 390 kts | 75° |
| 2026-04-29 23:38 | 33.80400 | 130.93448 | 19065 ft | 389 kts | 75° |
| 2026-04-29 23:38 | 33.81136 | 130.96608 | 19079 ft | 389 kts | 76° |
| 2026-04-29 23:38 | 33.81856 | 130.99715 | 19061 ft | 389 kts | 75° |
| 2026-04-29 23:38 | 33.82581 | 131.02840 | 19052 ft | 390 kts | 74° |
| 2026-04-29 23:39 | 33.83308 | 131.05986 | 19068 ft | 390 kts | 75° |
| 2026-04-29 23:39 | 33.84032 | 131.09117 | 19075 ft | 390 kts | 75° |
| 2026-04-29 23:39 | 33.84762 | 131.12285 | 19062 ft | 390 kts | 75° |
| 2026-04-29 23:39 | 33.85479 | 131.15402 | 19065 ft | 390 kts | 75° |
| 2026-04-29 23:40 | 33.86204 | 131.18547 | 19066 ft | 390 kts | 75° |
| 2026-04-29 23:40 | 33.86928 | 131.21683 | 19072 ft | 390 kts | 75° |
| 2026-04-29 23:40 | 33.87653 | 131.24831 | 19077 ft | 390 kts | 75° |
| 2026-04-29 23:40 | 33.88376 | 131.27994 | 19075 ft | 390 kts | 75° |
| 2026-04-29 23:41 | 33.89096 | 131.31134 | 19055 ft | 391 kts | 74° |
| 2026-04-29 23:41 | 33.89819 | 131.34280 | 19059 ft | 390 kts | 75° |
| 2026-04-29 23:41 | 33.90540 | 131.37440 | 19074 ft | 390 kts | 75° |
| 2026-04-29 23:41 | 33.91255 | 131.40573 | 19066 ft | 390 kts | 75° |
| 2026-04-29 23:42 | 33.91965 | 131.43692 | 19072 ft | 391 kts | 75° |
| 2026-04-29 23:42 | 33.92690 | 131.46869 | 19066 ft | 391 kts | 75° |
| 2026-04-29 23:42 | 33.93407 | 131.50029 | 19055 ft | 391 kts | 75° |
| 2026-04-29 23:42 | 33.94122 | 131.53172 | 19065 ft | 391 kts | 75° |
| 2026-04-29 23:43 | 33.94833 | 131.56306 | 19081 ft | 391 kts | 75° |
| 2026-04-29 23:43 | 33.95551 | 131.59471 | 19059 ft | 392 kts | 75° |
| 2026-04-29 23:43 | 33.96263 | 131.62637 | 19072 ft | 392 kts | 74° |
| 2026-04-29 23:43 | 33.96977 | 131.65791 | 19060 ft | 392 kts | 75° |
| 2026-04-29 23:44 | 33.97695 | 131.68968 | 19059 ft | 392 kts | 76° |
| 2026-04-29 23:44 | 33.98413 | 131.72148 | 19064 ft | 391 kts | 75° |
| 2026-04-29 23:44 | 33.99120 | 131.75284 | 19072 ft | 391 kts | 75° |
| 2026-04-29 23:44 | 33.99828 | 131.78439 | 19058 ft | 388 kts | 75° |
| 2026-04-29 23:45 | 34.00526 | 131.81543 | 18552 ft | 385 kts | 74° |
| 2026-04-29 23:45 | 34.01223 | 131.84628 | 17851 ft | 382 kts | 74° |
| 2026-04-29 23:45 | 34.01912 | 131.87685 | 17408 ft | 370 kts | 74° |
| 2026-04-29 23:45 | 34.02571 | 131.90611 | 17076 ft | 357 kts | 75° |
| 2026-04-29 23:46 | 34.03207 | 131.93443 | 16739 ft | 343 kts | 75° |
| 2026-04-29 23:46 | 34.03823 | 131.96182 | 16398 ft | 333 kts | 74° |
| 2026-04-29 23:46 | 34.04410 | 131.98811 | 16092 ft | 322 kts | 74° |
| 2026-04-29 23:46 | 34.04996 | 132.01442 | 15807 ft | 327 kts | 75° |
| 2026-04-29 23:47 | 34.05580 | 132.04092 | 15498 ft | 334 kts | 75° |
| 2026-04-29 23:47 | 34.06184 | 132.06819 | 15161 ft | 340 kts | 75° |
| 2026-04-29 23:47 | 34.06796 | 132.09593 | 14842 ft | 344 kts | 75° |
| 2026-04-29 23:47 | 34.07407 | 132.12347 | 14525 ft | 341 kts | 74° |
| 2026-04-29 23:48 | 34.08108 | 132.15062 | 14164 ft | 337 kts | 65° |
| 2026-04-29 23:48 | 34.09176 | 132.17558 | 13853 ft | 333 kts | 58° |
| 2026-04-29 23:48 | 34.10308 | 132.19987 | 13534 ft | 330 kts | 58° |
| 2026-04-29 23:48 | 34.11424 | 132.22388 | 13231 ft | 327 kts | 59° |
| 2026-04-29 23:49 | 34.12345 | 132.24878 | 12654 ft | 334 kts | 77° |
| 2026-04-29 23:49 | 34.12254 | 132.27617 | 12418 ft | 319 kts | 109° |
| 2026-04-29 23:49 | 34.11224 | 132.29854 | 12155 ft | 298 kts | 131° |
| 2026-04-29 23:49 | 34.09947 | 132.31761 | 11868 ft | 285 kts | 134° |
| 2026-04-29 23:50 | 34.08707 | 132.33559 | 11598 ft | 272 kts | 134° |
| 2026-04-29 23:50 | 34.07525 | 132.35251 | 11344 ft | 259 kts | 135° |
| 2026-04-29 23:50 | 34.05313 | 132.38385 | 10871 ft | 234 kts | 135° |
| 2026-04-29 23:51 | 34.04254 | 132.39867 | 10650 ft | 230 kts | 136° |
| 2026-04-29 23:51 | 34.03211 | 132.41316 | 10437 ft | 229 kts | 136° |
| 2026-04-29 23:51 | 34.02151 | 132.42783 | 10236 ft | 238 kts | 136° |
| 2026-04-29 23:51 | 34.01042 | 132.44304 | 10004 ft | 249 kts | 135° |
| 2026-04-29 23:52 | 33.99883 | 132.45901 | 9755 ft | 256 kts | 135° |
| 2026-04-29 23:52 | 33.98703 | 132.47539 | 9504 ft | 259 kts | 135° |
| 2026-04-29 23:52 | 33.97522 | 132.49178 | 9252 ft | 261 kts | 134° |
| 2026-04-29 23:52 | 33.96328 | 132.50833 | 9000 ft | 263 kts | 135° |
| 2026-04-29 23:53 | 33.95106 | 132.52522 | 8663 ft | 267 kts | 134° |
| 2026-04-29 23:53 | 33.93892 | 132.54202 | 8368 ft | 267 kts | 134° |
| 2026-04-29 23:53 | 33.92813 | 132.56065 | 7786 ft | 279 kts | 122° |
| 2026-04-29 23:53 | 33.91730 | 132.57951 | 7426 ft | 264 kts | 134° |
| 2026-04-29 23:54 | 33.90539 | 132.59514 | 7284 ft | 245 kts | 136° |
| 2026-04-29 23:54 | 33.89415 | 132.60998 | 6862 ft | 240 kts | 135° |
| 2026-04-29 23:54 | 33.88311 | 132.62456 | 6432 ft | 235 kts | 136° |
| 2026-04-29 23:54 | 33.87212 | 132.63898 | 5972 ft | 230 kts | 135° |
| 2026-04-29 23:55 | 33.86135 | 132.65289 | 5492 ft | 227 kts | 136° |
| 2026-04-29 23:55 | 33.85086 | 132.66623 | 5352 ft | 208 kts | 132° |
| 2026-04-29 23:55 | 33.84471 | 132.68135 | 4793 ft | 204 kts | 102° |
| 2026-04-29 23:55 | 33.84395 | 132.69824 | 4162 ft | 200 kts | 93° |
| 2026-04-29 23:56 | 33.84346 | 132.71451 | 3603 ft | 193 kts | 93° |
| 2026-04-29 23:56 | 33.84016 | 132.72971 | 2956 ft | 190 kts | 119° |
| 2026-04-29 23:56 | 33.83035 | 132.74054 | 2189 ft | 197 kts | 143° |
| 2026-04-29 23:56 | 33.81903 | 132.74878 | 1813 ft | 182 kts | 143° |
| 2026-04-29 23:57 | 33.80870 | 132.75557 | 1708 ft | 159 kts | 154° |
| 2026-04-29 23:57 | 33.79802 | 132.75291 | 1517 ft | 168 kts | 219° |
| 2026-04-29 23:57 | 33.79367 | 132.74031 | 1206 ft | 165 kts | 276° |
| 2026-04-29 23:57 | 33.79824 | 132.72908 | 911 ft | 141 kts | 326° |
| 2026-04-29 23:58 | 33.80607 | 132.72296 | 552 ft | 137 kts | 336° |
| 2026-04-29 23:58 | 33.81387 | 132.71706 | 256 ft | 133 kts | 326° |
| 2026-04-29 23:58 | 33.82040 | 132.70914 | 55 ft | 130 kts | 314° |
| 2026-04-29 23:58 | 33.82571 | 132.70178 | 19 ft | 87 kts | 311° |
| 2026-04-29 23:59 | 33.82842 | 132.69798 | 12 ft | 26 kts | 308° |
| 2026-04-29 23:59 | 33.82910 | 132.69699 | 12 ft | 16 kts | 311° |
| 2026-04-29 23:59 | 33.83015 | 132.69600 | 10 ft | 21 kts | 3° |
| 2026-04-29 23:59 | 33.83111 | 132.69708 | 12 ft | 16 kts | 93° |
| 2026-04-30 00:00 | 33.83057 | 132.69803 | 13 ft | 12 kts | 130° |
| 2026-04-30 00:00 | 33.83011 | 132.69870 | 14 ft | 8 kts | 129° |
| 2026-04-30 00:00 | 33.82968 | 132.69931 | 15 ft | 11 kts | 130° |
| 2026-04-30 00:00 | 33.82916 | 132.70003 | 17 ft | 10 kts | 131° |
| 2026-04-30 00:01 | 33.82867 | 132.70071 | 18 ft | 11 kts | 129° |
| 2026-04-30 00:01 | 33.82849 | 132.70131 | 21 ft | 5 kts | 36° |
| 2026-04-30 00:01 | 33.82882 | 132.70161 | 22 ft | 6 kts | 40° |
| 2026-04-30 00:01 | 33.82908 | 132.70186 | 22 ft | 3 kts | 40° |
| 2026-04-30 00:02 | 33.82913 | 132.70190 | 23 ft | 0 kts | 43° |